sensor_id;sensor_type;location;lat;lon;timestamp;temperature;humidity
80210;DHT22;69529;37.974;23.708;2023-05-07T00:01:57;21.80;45.20
80210;DHT22;69529;37.974;23.708;2023-05-07T00:04:25;21.90;45.30
80210;DHT22;69529;37.974;23.708;2023-05-07T00:06:53;21.90;45.40
80210;DHT22;69529;37.974;23.708;2023-05-07T00:09:22;21.90;45.30
80210;DHT22;69529;37.974;23.708;2023-05-07T00:11:49;21.80;45.30
80210;DHT22;69529;37.974;23.708;2023-05-07T00:14:17;21.80;45.40
80210;DHT22;69529;37.974;23.708;2023-05-07T00:16:45;21.90;45.30
80210;DHT22;69529;37.974;23.708;2023-05-07T00:19:12;21.90;45.30
80210;DHT22;69529;37.974;23.708;2023-05-07T00:21:40;21.90;45.30
80210;DHT22;69529;37.974;23.708;2023-05-07T00:24:07;21.80;45.20
80210;DHT22;69529;37.974;23.708;2023-05-07T00:26:35;21.80;45.30
80210;DHT22;69529;37.974;23.708;2023-05-07T00:29:03;21.90;45.30
80210;DHT22;69529;37.974;23.708;2023-05-07T00:31:30;21.80;45.30
80210;DHT22;69529;37.974;23.708;2023-05-07T00:33:58;21.80;45.30
80210;DHT22;69529;37.974;23.708;2023-05-07T00:36:26;21.80;46.00
80210;DHT22;69529;37.974;23.708;2023-05-07T00:38:54;21.80;45.40
80210;DHT22;69529;37.974;23.708;2023-05-07T00:41:22;21.80;45.40
80210;DHT22;69529;37.974;23.708;2023-05-07T00:43:49;21.80;45.40
80210;DHT22;69529;37.974;23.708;2023-05-07T00:46:20;21.80;45.50
80210;DHT22;69529;37.974;23.708;2023-05-07T00:48:54;21.80;45.50
80210;DHT22;69529;37.974;23.708;2023-05-07T00:51:18;21.80;45.60
80210;DHT22;69529;37.974;23.708;2023-05-07T00:53:46;21.80;45.60
80210;DHT22;69529;37.974;23.708;2023-05-07T00:56:14;21.80;45.70
80210;DHT22;69529;37.974;23.708;2023-05-07T00:58:42;21.80;45.60
80210;DHT22;69529;37.974;23.708;2023-05-07T01:01:10;21.80;45.60
80210;DHT22;69529;37.974;23.708;2023-05-07T01:03:38;21.80;45.60
80210;DHT22;69529;37.974;23.708;2023-05-07T01:06:06;21.90;45.60
80210;DHT22;69529;37.974;23.708;2023-05-07T01:08:34;21.80;45.60
80210;DHT22;69529;37.974;23.708;2023-05-07T01:11:03;21.80;45.70
80210;DHT22;69529;37.974;23.708;2023-05-07T01:13:30;21.80;45.60
80210;DHT22;69529;37.974;23.708;2023-05-07T01:15:58;21.80;45.60
80210;DHT22;69529;37.974;23.708;2023-05-07T01:18:26;21.80;45.70
80210;DHT22;69529;37.974;23.708;2023-05-07T01:20:58;21.80;45.60
80210;DHT22;69529;37.974;23.708;2023-05-07T01:23:28;21.80;46.30
80210;DHT22;69529;37.974;23.708;2023-05-07T01:25:57;21.80;45.70
80210;DHT22;69529;37.974;23.708;2023-05-07T01:28:24;21.80;45.80
80210;DHT22;69529;37.974;23.708;2023-05-07T01:30:54;21.70;45.60
80210;DHT22;69529;37.974;23.708;2023-05-07T01:33:22;21.80;45.70
80210;DHT22;69529;37.974;23.708;2023-05-07T01:36:10;21.80;45.70
80210;DHT22;69529;37.974;23.708;2023-05-07T01:38:40;21.70;45.90
80210;DHT22;69529;37.974;23.708;2023-05-07T01:41:08;21.70;45.70
80210;DHT22;69529;37.974;23.708;2023-05-07T01:43:36;21.70;45.70
80210;DHT22;69529;37.974;23.708;2023-05-07T01:46:04;21.70;45.70
80210;DHT22;69529;37.974;23.708;2023-05-07T01:48:32;21.70;45.80
80210;DHT22;69529;37.974;23.708;2023-05-07T01:51:01;21.70;45.80
80210;DHT22;69529;37.974;23.708;2023-05-07T01:53:30;21.70;45.90
80210;DHT22;69529;37.974;23.708;2023-05-07T01:55:58;21.70;45.80
80210;DHT22;69529;37.974;23.708;2023-05-07T01:58:26;21.70;45.80
80210;DHT22;69529;37.974;23.708;2023-05-07T02:00:53;21.70;45.80
80210;DHT22;69529;37.974;23.708;2023-05-07T02:03:21;21.70;45.70
80210;DHT22;69529;37.974;23.708;2023-05-07T02:05:49;21.70;45.70
80210;DHT22;69529;37.974;23.708;2023-05-07T02:08:17;21.70;45.80
80210;DHT22;69529;37.974;23.708;2023-05-07T02:10:44;21.70;45.90
80210;DHT22;69529;37.974;23.708;2023-05-07T02:13:12;21.70;45.80
80210;DHT22;69529;37.974;23.708;2023-05-07T02:15:39;21.70;45.80
80210;DHT22;69529;37.974;23.708;2023-05-07T02:18:08;21.70;46.50
80210;DHT22;69529;37.974;23.708;2023-05-07T02:20:38;21.70;45.90
80210;DHT22;69529;37.974;23.708;2023-05-07T02:23:05;21.60;45.90
80210;DHT22;69529;37.974;23.708;2023-05-07T02:25:32;21.60;46.10
80210;DHT22;69529;37.974;23.708;2023-05-07T02:27:59;21.60;46.20
80210;DHT22;69529;37.974;23.708;2023-05-07T02:30:26;21.50;46.30
80210;DHT22;69529;37.974;23.708;2023-05-07T02:32:52;21.50;46.30
80210;DHT22;69529;37.974;23.708;2023-05-07T02:35:19;21.50;46.40
80210;DHT22;69529;37.974;23.708;2023-05-07T02:37:46;21.50;46.40
80210;DHT22;69529;37.974;23.708;2023-05-07T02:40:13;21.50;46.40
80210;DHT22;69529;37.974;23.708;2023-05-07T02:42:40;21.50;46.40
80210;DHT22;69529;37.974;23.708;2023-05-07T02:45:07;21.50;46.40
80210;DHT22;69529;37.974;23.708;2023-05-07T02:47:34;21.50;46.50
80210;DHT22;69529;37.974;23.708;2023-05-07T02:50:01;21.50;46.50
80210;DHT22;69529;37.974;23.708;2023-05-07T02:52:28;21.50;46.90
80210;DHT22;69529;37.974;23.708;2023-05-07T02:54:55;21.50;46.60
80210;DHT22;69529;37.974;23.708;2023-05-07T02:57:22;21.50;46.50
80210;DHT22;69529;37.974;23.708;2023-05-07T02:59:49;21.50;46.50
80210;DHT22;69529;37.974;23.708;2023-05-07T03:02:16;21.50;46.50
80210;DHT22;69529;37.974;23.708;2023-05-07T03:04:43;21.50;46.50
80210;DHT22;69529;37.974;23.708;2023-05-07T03:07:10;21.50;46.50
80210;DHT22;69529;37.974;23.708;2023-05-07T03:09:37;21.50;46.50
80210;DHT22;69529;37.974;23.708;2023-05-07T03:12:04;21.50;46.50
80210;DHT22;69529;37.974;23.708;2023-05-07T03:14:30;21.50;46.50
80210;DHT22;69529;37.974;23.708;2023-05-07T03:16:57;21.50;46.50
80210;DHT22;69529;37.974;23.708;2023-05-07T03:19:24;21.40;46.50
80210;DHT22;69529;37.974;23.708;2023-05-07T03:21:51;21.50;46.50
80210;DHT22;69529;37.974;23.708;2023-05-07T03:24:18;21.50;46.50
80210;DHT22;69529;37.974;23.708;2023-05-07T03:26:45;21.50;46.50
80210;DHT22;69529;37.974;23.708;2023-05-07T03:29:12;21.50;46.50
80210;DHT22;69529;37.974;23.708;2023-05-07T03:31:39;21.40;46.40
80210;DHT22;69529;37.974;23.708;2023-05-07T03:34:06;21.40;46.40
80210;DHT22;69529;37.974;23.708;2023-05-07T03:36:33;21.50;46.50
80210;DHT22;69529;37.974;23.708;2023-05-07T03:39:00;21.40;46.40
80210;DHT22;69529;37.974;23.708;2023-05-07T03:41:27;21.50;46.50
80210;DHT22;69529;37.974;23.708;2023-05-07T03:43:55;21.50;46.50
80210;DHT22;69529;37.974;23.708;2023-05-07T03:46:22;21.50;46.40
80210;DHT22;69529;37.974;23.708;2023-05-07T03:48:50;21.50;46.40
80210;DHT22;69529;37.974;23.708;2023-05-07T03:51:17;21.50;46.40
80210;DHT22;69529;37.974;23.708;2023-05-07T03:53:44;21.50;46.40
80210;DHT22;69529;37.974;23.708;2023-05-07T03:56:11;21.50;46.30
80210;DHT22;69529;37.974;23.708;2023-05-07T03:58:38;21.50;46.30
80210;DHT22;69529;37.974;23.708;2023-05-07T04:01:05;21.60;46.20
80210;DHT22;69529;37.974;23.708;2023-05-07T04:03:33;21.50;46.10
80210;DHT22;69529;37.974;23.708;2023-05-07T04:06:00;21.60;46.20
80210;DHT22;69529;37.974;23.708;2023-05-07T04:08:27;21.60;46.10
80210;DHT22;69529;37.974;23.708;2023-05-07T04:10:54;21.60;46.10
80210;DHT22;69529;37.974;23.708;2023-05-07T04:13:21;21.60;46.00
80210;DHT22;69529;37.974;23.708;2023-05-07T04:15:48;21.60;45.90
80210;DHT22;69529;37.974;23.708;2023-05-07T04:18:15;21.60;45.90
80210;DHT22;69529;37.974;23.708;2023-05-07T04:20:42;21.70;45.80
80210;DHT22;69529;37.974;23.708;2023-05-07T04:23:09;21.80;45.80
80210;DHT22;69529;37.974;23.708;2023-05-07T04:25:36;21.80;45.60
80210;DHT22;69529;37.974;23.708;2023-05-07T04:28:03;21.80;45.40
80210;DHT22;69529;37.974;23.708;2023-05-07T04:30:30;21.90;45.30
80210;DHT22;69529;37.974;23.708;2023-05-07T04:32:57;21.90;45.20
80210;DHT22;69529;37.974;23.708;2023-05-07T04:35:23;22.00;45.10
80210;DHT22;69529;37.974;23.708;2023-05-07T04:37:50;22.10;45.00
80210;DHT22;69529;37.974;23.708;2023-05-07T04:40:17;22.10;44.80
80210;DHT22;69529;37.974;23.708;2023-05-07T04:42:44;22.20;44.60
80210;DHT22;69529;37.974;23.708;2023-05-07T04:45:11;22.30;44.50
80210;DHT22;69529;37.974;23.708;2023-05-07T04:47:38;22.40;44.40
80210;DHT22;69529;37.974;23.708;2023-05-07T04:50:06;22.40;44.30
80210;DHT22;69529;37.974;23.708;2023-05-07T04:52:34;22.50;44.10
80210;DHT22;69529;37.974;23.708;2023-05-07T04:55:00;22.50;44.30
80210;DHT22;69529;37.974;23.708;2023-05-07T04:57:27;22.60;43.90
80210;DHT22;69529;37.974;23.708;2023-05-07T04:59:54;22.70;43.70
80210;DHT22;69529;37.974;23.708;2023-05-07T05:02:21;22.70;43.50
80210;DHT22;69529;37.974;23.708;2023-05-07T05:04:48;22.80;43.30
80210;DHT22;69529;37.974;23.708;2023-05-07T05:07:15;22.90;43.20
80210;DHT22;69529;37.974;23.708;2023-05-07T05:09:42;22.90;43.00
80210;DHT22;69529;37.974;23.708;2023-05-07T05:12:09;23.00;42.90
80210;DHT22;69529;37.974;23.708;2023-05-07T05:14:36;23.10;42.80
80210;DHT22;69529;37.974;23.708;2023-05-07T05:17:02;23.20;42.70
80210;DHT22;69529;37.974;23.708;2023-05-07T05:19:29;23.20;42.50
80210;DHT22;69529;37.974;23.708;2023-05-07T05:21:56;23.30;42.40
80210;DHT22;69529;37.974;23.708;2023-05-07T05:24:23;23.40;42.30
80210;DHT22;69529;37.974;23.708;2023-05-07T05:26:51;23.40;42.10
80210;DHT22;69529;37.974;23.708;2023-05-07T05:29:18;23.50;42.00
80210;DHT22;69529;37.974;23.708;2023-05-07T05:31:45;23.60;42.00
80210;DHT22;69529;37.974;23.708;2023-05-07T05:34:12;23.70;41.90
80210;DHT22;69529;37.974;23.708;2023-05-07T05:36:39;23.70;41.70
80210;DHT22;69529;37.974;23.708;2023-05-07T05:39:07;23.80;41.40
80210;DHT22;69529;37.974;23.708;2023-05-07T05:41:34;23.90;41.30
80210;DHT22;69529;37.974;23.708;2023-05-07T05:44:01;23.90;41.10
80210;DHT22;69529;37.974;23.708;2023-05-07T05:46:28;24.00;41.00
80210;DHT22;69529;37.974;23.708;2023-05-07T05:48:55;24.10;41.00
80210;DHT22;69529;37.974;23.708;2023-05-07T05:51:22;24.10;40.80
80210;DHT22;69529;37.974;23.708;2023-05-07T05:53:49;24.20;40.70
80210;DHT22;69529;37.974;23.708;2023-05-07T05:56:16;24.30;40.60
80210;DHT22;69529;37.974;23.708;2023-05-07T05:58:43;24.30;40.40
80210;DHT22;69529;37.974;23.708;2023-05-07T06:01:10;24.40;40.30
80210;DHT22;69529;37.974;23.708;2023-05-07T06:03:37;24.40;40.20
80210;DHT22;69529;37.974;23.708;2023-05-07T06:06:04;24.50;40.10
80210;DHT22;69529;37.974;23.708;2023-05-07T06:08:31;24.60;40.20
80210;DHT22;69529;37.974;23.708;2023-05-07T06:10:58;24.70;40.00
80210;DHT22;69529;37.974;23.708;2023-05-07T06:13:26;24.70;39.80
80210;DHT22;69529;37.974;23.708;2023-05-07T06:15:52;24.80;39.70
80210;DHT22;69529;37.974;23.708;2023-05-07T06:18:19;24.80;39.50
80210;DHT22;69529;37.974;23.708;2023-05-07T06:20:46;24.90;39.40
80210;DHT22;69529;37.974;23.708;2023-05-07T06:23:13;24.90;39.40
80210;DHT22;69529;37.974;23.708;2023-05-07T06:25:40;25.00;39.40
80210;DHT22;69529;37.974;23.708;2023-05-07T06:28:07;25.00;39.20
80210;DHT22;69529;37.974;23.708;2023-05-07T06:30:36;25.10;39.10
80210;DHT22;69529;37.974;23.708;2023-05-07T06:33:02;25.10;38.90
80210;DHT22;69529;37.974;23.708;2023-05-07T06:35:29;25.20;39.50
80210;DHT22;69529;37.974;23.708;2023-05-07T06:37:56;25.20;38.70
80210;DHT22;69529;37.974;23.708;2023-05-07T06:40:23;25.20;38.50
80210;DHT22;69529;37.974;23.708;2023-05-07T06:42:50;25.30;38.40
80210;DHT22;69529;37.974;23.708;2023-05-07T06:45:17;25.30;38.20
80210;DHT22;69529;37.974;23.708;2023-05-07T06:47:44;25.40;38.80
80210;DHT22;69529;37.974;23.708;2023-05-07T06:50:13;25.40;38.00
80210;DHT22;69529;37.974;23.708;2023-05-07T06:52:39;25.40;37.80
80210;DHT22;69529;37.974;23.708;2023-05-07T06:55:06;25.50;37.70
80210;DHT22;69529;37.974;23.708;2023-05-07T06:57:33;25.50;37.60
80210;DHT22;69529;37.974;23.708;2023-05-07T07:00:00;25.50;37.50
80210;DHT22;69529;37.974;23.708;2023-05-07T07:02:27;25.50;37.50
80210;DHT22;69529;37.974;23.708;2023-05-07T07:04:54;25.60;37.50
80210;DHT22;69529;37.974;23.708;2023-05-07T07:07:21;25.60;37.40
80210;DHT22;69529;37.974;23.708;2023-05-07T07:09:48;25.60;37.20
80210;DHT22;69529;37.974;23.708;2023-05-07T07:12:17;25.60;37.10
80210;DHT22;69529;37.974;23.708;2023-05-07T07:14:43;25.60;37.00
80210;DHT22;69529;37.974;23.708;2023-05-07T07:17:10;25.70;37.00
80210;DHT22;69529;37.974;23.708;2023-05-07T07:19:37;25.60;36.90
80210;DHT22;69529;37.974;23.708;2023-05-07T07:22:05;25.70;36.90
80210;DHT22;69529;37.974;23.708;2023-05-07T07:24:32;25.70;36.90
80210;DHT22;69529;37.974;23.708;2023-05-07T07:26:59;25.70;36.80
80210;DHT22;69529;37.974;23.708;2023-05-07T07:29:26;25.70;36.70
80210;DHT22;69529;37.974;23.708;2023-05-07T07:31:53;25.60;36.60
80210;DHT22;69529;37.974;23.708;2023-05-07T07:34:20;25.70;36.60
80210;DHT22;69529;37.974;23.708;2023-05-07T07:36:47;25.70;36.50
80210;DHT22;69529;37.974;23.708;2023-05-07T07:39:13;25.70;36.50
80210;DHT22;69529;37.974;23.708;2023-05-07T07:41:40;25.70;36.40
80210;DHT22;69529;37.974;23.708;2023-05-07T07:44:07;25.70;36.40
80210;DHT22;69529;37.974;23.708;2023-05-07T07:46:35;25.60;36.30
80210;DHT22;69529;37.974;23.708;2023-05-07T07:49:02;25.60;36.30
80210;DHT22;69529;37.974;23.708;2023-05-07T07:51:29;25.60;36.40
80210;DHT22;69529;37.974;23.708;2023-05-07T07:53:56;25.60;36.40
80210;DHT22;69529;37.974;23.708;2023-05-07T07:56:23;25.60;36.40
80210;DHT22;69529;37.974;23.708;2023-05-07T07:58:51;25.60;36.40
80210;DHT22;69529;37.974;23.708;2023-05-07T08:04:04;25.50;36.50
80210;DHT22;69529;37.974;23.708;2023-05-07T08:06:31;25.50;36.40
80210;DHT22;69529;37.974;23.708;2023-05-07T08:08:58;25.50;36.40
80210;DHT22;69529;37.974;23.708;2023-05-07T08:11:25;25.40;36.50
80210;DHT22;69529;37.974;23.708;2023-05-07T08:13:52;25.40;36.60
80210;DHT22;69529;37.974;23.708;2023-05-07T08:16:19;25.30;36.60
80210;DHT22;69529;37.974;23.708;2023-05-07T08:18:46;25.30;36.70
80210;DHT22;69529;37.974;23.708;2023-05-07T08:21:13;25.20;36.80
80210;DHT22;69529;37.974;23.708;2023-05-07T08:23:39;25.10;36.90
80210;DHT22;69529;37.974;23.708;2023-05-07T08:26:07;25.00;36.90
80210;DHT22;69529;37.974;23.708;2023-05-07T08:28:34;24.90;37.10
80210;DHT22;69529;37.974;23.708;2023-05-07T08:31:01;24.90;37.20
80210;DHT22;69529;37.974;23.708;2023-05-07T08:33:28;24.90;38.00
80210;DHT22;69529;37.974;23.708;2023-05-07T08:35:55;24.80;37.30
80210;DHT22;69529;37.974;23.708;2023-05-07T08:38:22;24.70;37.40
80210;DHT22;69529;37.974;23.708;2023-05-07T08:40:49;24.70;37.60
80210;DHT22;69529;37.974;23.708;2023-05-07T08:43:16;24.70;37.60
80210;DHT22;69529;37.974;23.708;2023-05-07T08:45:43;24.70;37.60
80210;DHT22;69529;37.974;23.708;2023-05-07T08:48:15;24.60;37.70
80210;DHT22;69529;37.974;23.708;2023-05-07T08:50:42;24.60;37.70
80210;DHT22;69529;37.974;23.708;2023-05-07T08:53:09;24.60;37.70
80210;DHT22;69529;37.974;23.708;2023-05-07T08:55:36;24.60;37.80
80210;DHT22;69529;37.974;23.708;2023-05-07T08:58:03;24.60;37.80
80210;DHT22;69529;37.974;23.708;2023-05-07T09:00:30;24.60;37.90
80210;DHT22;69529;37.974;23.708;2023-05-07T09:02:57;24.60;37.90
80210;DHT22;69529;37.974;23.708;2023-05-07T09:05:28;24.60;38.00
80210;DHT22;69529;37.974;23.708;2023-05-07T09:07:55;24.60;38.00
80210;DHT22;69529;37.974;23.708;2023-05-07T09:10:22;24.50;37.90
80210;DHT22;69529;37.974;23.708;2023-05-07T09:12:48;24.50;38.00
80210;DHT22;69529;37.974;23.708;2023-05-07T09:15:15;24.50;38.00
80210;DHT22;69529;37.974;23.708;2023-05-07T09:17:42;24.50;38.60
80210;DHT22;69529;37.974;23.708;2023-05-07T09:20:10;24.50;38.00
80210;DHT22;69529;37.974;23.708;2023-05-07T09:22:37;24.50;38.10
80210;DHT22;69529;37.974;23.708;2023-05-07T09:25:05;24.50;38.10
80210;DHT22;69529;37.974;23.708;2023-05-07T09:27:32;24.50;38.10
80210;DHT22;69529;37.974;23.708;2023-05-07T09:30:02;24.50;38.10
80210;DHT22;69529;37.974;23.708;2023-05-07T09:32:27;24.40;38.10
80210;DHT22;69529;37.974;23.708;2023-05-07T09:34:56;24.40;38.10
80210;DHT22;69529;37.974;23.708;2023-05-07T09:37:23;24.50;38.10
80210;DHT22;69529;37.974;23.708;2023-05-07T09:39:51;24.40;38.10
80210;DHT22;69529;37.974;23.708;2023-05-07T09:42:22;24.50;38.20
80210;DHT22;69529;37.974;23.708;2023-05-07T09:44:46;24.40;38.10
80210;DHT22;69529;37.974;23.708;2023-05-07T09:47:14;24.40;38.10
80210;DHT22;69529;37.974;23.708;2023-05-07T09:49:42;24.40;38.10
80210;DHT22;69529;37.974;23.708;2023-05-07T09:52:10;24.40;38.00
80210;DHT22;69529;37.974;23.708;2023-05-07T09:54:37;24.40;38.00
80210;DHT22;69529;37.974;23.708;2023-05-07T09:57:04;24.40;38.00
80210;DHT22;69529;37.974;23.708;2023-05-07T09:59:32;24.40;37.90
80210;DHT22;69529;37.974;23.708;2023-05-07T10:02:00;24.40;38.00
80210;DHT22;69529;37.974;23.708;2023-05-07T10:04:27;24.40;38.00
80210;DHT22;69529;37.974;23.708;2023-05-07T10:06:54;24.40;38.00
80210;DHT22;69529;37.974;23.708;2023-05-07T10:09:22;24.40;38.00
80210;DHT22;69529;37.974;23.708;2023-05-07T10:11:49;24.40;38.00
80210;DHT22;69529;37.974;23.708;2023-05-07T10:14:17;24.40;38.00
80210;DHT22;69529;37.974;23.708;2023-05-07T10:16:44;24.40;38.00
80210;DHT22;69529;37.974;23.708;2023-05-07T10:19:11;24.40;38.00
80210;DHT22;69529;37.974;23.708;2023-05-07T10:21:44;24.40;38.00
80210;DHT22;69529;37.974;23.708;2023-05-07T10:24:09;24.40;38.00
80210;DHT22;69529;37.974;23.708;2023-05-07T10:26:41;24.30;38.00
80210;DHT22;69529;37.974;23.708;2023-05-07T10:29:14;24.30;37.90
80210;DHT22;69529;37.974;23.708;2023-05-07T10:32:02;24.30;38.00
80210;DHT22;69529;37.974;23.708;2023-05-07T10:34:12;24.30;38.00
80210;DHT22;69529;37.974;23.708;2023-05-07T10:36:39;24.40;38.00
80210;DHT22;69529;37.974;23.708;2023-05-07T10:39:08;24.40;38.20
80210;DHT22;69529;37.974;23.708;2023-05-07T10:41:35;24.30;38.00
80210;DHT22;69529;37.974;23.708;2023-05-07T10:44:04;24.40;38.00
80210;DHT22;69529;37.974;23.708;2023-05-07T10:46:30;24.40;38.80
80210;DHT22;69529;37.974;23.708;2023-05-07T10:51:34;24.40;38.00
80210;DHT22;69529;37.974;23.708;2023-05-07T10:56:42;24.30;38.00
80210;DHT22;69529;37.974;23.708;2023-05-07T11:04:27;24.30;38.00
80210;DHT22;69529;37.974;23.708;2023-05-07T11:15:07;24.30;38.00
80210;DHT22;69529;37.974;23.708;2023-05-07T11:17:35;24.30;38.10
80210;DHT22;69529;37.974;23.708;2023-05-07T11:20:03;24.30;38.10
80210;DHT22;69529;37.974;23.708;2023-05-07T11:25:06;24.30;38.00
80210;DHT22;69529;37.974;23.708;2023-05-07T11:27:33;24.30;38.10
80210;DHT22;69529;37.974;23.708;2023-05-07T11:30:00;24.30;38.00
80210;DHT22;69529;37.974;23.708;2023-05-07T11:32:27;24.30;38.00
80210;DHT22;69529;37.974;23.708;2023-05-07T11:34:55;24.20;38.10
80210;DHT22;69529;37.974;23.708;2023-05-07T11:37:23;24.30;38.20
80210;DHT22;69529;37.974;23.708;2023-05-07T11:39:50;24.30;38.20
80210;DHT22;69529;37.974;23.708;2023-05-07T11:42:25;24.30;38.10
80210;DHT22;69529;37.974;23.708;2023-05-07T11:44:52;24.20;38.00
80210;DHT22;69529;37.974;23.708;2023-05-07T11:47:19;24.30;38.20
80210;DHT22;69529;37.974;23.708;2023-05-07T11:49:52;24.30;38.20
80210;DHT22;69529;37.974;23.708;2023-05-07T11:52:15;24.30;38.10
80210;DHT22;69529;37.974;23.708;2023-05-07T11:55:04;24.30;38.00
80210;DHT22;69529;37.974;23.708;2023-05-07T11:57:14;24.20;38.00
80210;DHT22;69529;37.974;23.708;2023-05-07T11:59:39;24.30;38.10
80210;DHT22;69529;37.974;23.708;2023-05-07T12:02:07;24.20;38.10
80210;DHT22;69529;37.974;23.708;2023-05-07T12:04:34;24.20;38.10
80210;DHT22;69529;37.974;23.708;2023-05-07T12:07:01;24.20;38.10
80210;DHT22;69529;37.974;23.708;2023-05-07T12:09:27;24.20;38.10
80210;DHT22;69529;37.974;23.708;2023-05-07T12:11:54;24.20;38.10
80210;DHT22;69529;37.974;23.708;2023-05-07T12:14:22;24.10;38.00
80210;DHT22;69529;37.974;23.708;2023-05-07T12:16:48;24.20;38.20
80210;DHT22;69529;37.974;23.708;2023-05-07T12:19:16;24.20;38.10
80210;DHT22;69529;37.974;23.708;2023-05-07T12:21:43;24.10;38.10
80210;DHT22;69529;37.974;23.708;2023-05-07T12:24:10;24.20;38.20
80210;DHT22;69529;37.974;23.708;2023-05-07T12:26:37;24.10;38.10
80210;DHT22;69529;37.974;23.708;2023-05-07T12:29:06;24.20;38.20
80210;DHT22;69529;37.974;23.708;2023-05-07T12:31:33;24.10;38.10
80210;DHT22;69529;37.974;23.708;2023-05-07T12:34:00;24.10;38.10
80210;DHT22;69529;37.974;23.708;2023-05-07T12:36:35;24.10;38.20
80210;DHT22;69529;37.974;23.708;2023-05-07T12:38:56;24.10;38.20
80210;DHT22;69529;37.974;23.708;2023-05-07T12:41:22;24.10;38.20
80210;DHT22;69529;37.974;23.708;2023-05-07T12:43:51;24.10;38.20
80210;DHT22;69529;37.974;23.708;2023-05-07T12:46:19;24.10;38.30
80210;DHT22;69529;37.974;23.708;2023-05-07T12:48:46;24.10;38.30
80210;DHT22;69529;37.974;23.708;2023-05-07T12:51:13;24.10;38.20
80210;DHT22;69529;37.974;23.708;2023-05-07T12:53:41;24.10;38.20
80210;DHT22;69529;37.974;23.708;2023-05-07T12:56:08;24.10;38.20
80210;DHT22;69529;37.974;23.708;2023-05-07T12:58:36;24.10;38.20
80210;DHT22;69529;37.974;23.708;2023-05-07T13:01:06;24.10;38.20
80210;DHT22;69529;37.974;23.708;2023-05-07T13:03:35;24.10;38.20
80210;DHT22;69529;37.974;23.708;2023-05-07T13:06:03;24.10;38.20
80210;DHT22;69529;37.974;23.708;2023-05-07T13:08:31;24.10;38.20
80210;DHT22;69529;37.974;23.708;2023-05-07T13:10:59;24.10;38.20
80210;DHT22;69529;37.974;23.708;2023-05-07T13:13:28;24.10;38.30
80210;DHT22;69529;37.974;23.708;2023-05-07T13:15:55;24.10;38.20
80210;DHT22;69529;37.974;23.708;2023-05-07T13:18:22;24.10;38.20
80210;DHT22;69529;37.974;23.708;2023-05-07T13:20:49;24.10;38.20
80210;DHT22;69529;37.974;23.708;2023-05-07T13:23:15;24.00;38.20
80210;DHT22;69529;37.974;23.708;2023-05-07T13:25:42;24.00;38.10
80210;DHT22;69529;37.974;23.708;2023-05-07T13:28:09;24.00;38.20
80210;DHT22;69529;37.974;23.708;2023-05-07T13:30:36;24.00;38.20
80210;DHT22;69529;37.974;23.708;2023-05-07T13:33:03;24.00;38.10
80210;DHT22;69529;37.974;23.708;2023-05-07T13:35:30;24.00;38.10
80210;DHT22;69529;37.974;23.708;2023-05-07T13:37:57;24.00;38.10
80210;DHT22;69529;37.974;23.708;2023-05-07T13:40:25;24.00;38.10
80210;DHT22;69529;37.974;23.708;2023-05-07T13:42:53;24.00;38.20
80210;DHT22;69529;37.974;23.708;2023-05-07T13:45:20;24.00;38.10
80210;DHT22;69529;37.974;23.708;2023-05-07T13:47:47;24.00;38.10
80210;DHT22;69529;37.974;23.708;2023-05-07T13:50:15;24.00;38.10
80210;DHT22;69529;37.974;23.708;2023-05-07T13:52:45;24.00;38.10
80210;DHT22;69529;37.974;23.708;2023-05-07T13:55:14;24.00;38.00
80210;DHT22;69529;37.974;23.708;2023-05-07T13:57:40;24.00;38.20
80210;DHT22;69529;37.974;23.708;2023-05-07T14:00:08;24.00;38.20
80210;DHT22;69529;37.974;23.708;2023-05-07T14:02:35;24.00;38.10
80210;DHT22;69529;37.974;23.708;2023-05-07T14:05:02;24.00;38.00
80210;DHT22;69529;37.974;23.708;2023-05-07T14:07:28;23.90;38.10
80210;DHT22;69529;37.974;23.708;2023-05-07T14:09:56;24.00;38.10
80210;DHT22;69529;37.974;23.708;2023-05-07T14:12:23;24.00;38.10
80210;DHT22;69529;37.974;23.708;2023-05-07T14:17:36;24.00;38.20
80210;DHT22;69529;37.974;23.708;2023-05-07T14:20:03;24.00;38.10
80210;DHT22;69529;37.974;23.708;2023-05-07T14:22:32;23.90;38.00
80210;DHT22;69529;37.974;23.708;2023-05-07T14:24:59;24.00;38.20
80210;DHT22;69529;37.974;23.708;2023-05-07T14:27:26;23.90;38.00
80210;DHT22;69529;37.974;23.708;2023-05-07T14:29:53;23.90;38.10
80210;DHT22;69529;37.974;23.708;2023-05-07T14:32:20;23.90;38.10
80210;DHT22;69529;37.974;23.708;2023-05-07T14:34:47;23.90;38.00
80210;DHT22;69529;37.974;23.708;2023-05-07T14:37:14;23.90;38.00
80210;DHT22;69529;37.974;23.708;2023-05-07T14:39:41;23.90;38.00
80210;DHT22;69529;37.974;23.708;2023-05-07T14:42:08;23.90;38.00
80210;DHT22;69529;37.974;23.708;2023-05-07T14:44:35;23.90;38.10
80210;DHT22;69529;37.974;23.708;2023-05-07T14:47:02;23.90;38.10
80210;DHT22;69529;37.974;23.708;2023-05-07T14:49:29;23.90;38.10
80210;DHT22;69529;37.974;23.708;2023-05-07T14:51:57;23.90;38.10
80210;DHT22;69529;37.974;23.708;2023-05-07T14:54:25;23.90;38.00
80210;DHT22;69529;37.974;23.708;2023-05-07T14:56:52;23.90;38.00
80210;DHT22;69529;37.974;23.708;2023-05-07T14:59:19;23.90;38.00
80210;DHT22;69529;37.974;23.708;2023-05-07T15:01:47;23.90;38.10
80210;DHT22;69529;37.974;23.708;2023-05-07T15:04:14;23.90;38.00
80210;DHT22;69529;37.974;23.708;2023-05-07T15:06:41;23.90;37.90
80210;DHT22;69529;37.974;23.708;2023-05-07T15:09:08;23.90;37.80
80210;DHT22;69529;37.974;23.708;2023-05-07T15:11:35;23.90;37.80
80210;DHT22;69529;37.974;23.708;2023-05-07T15:14:02;23.90;38.00
80210;DHT22;69529;37.974;23.708;2023-05-07T15:16:28;23.90;38.00
80210;DHT22;69529;37.974;23.708;2023-05-07T15:18:55;23.80;37.80
80210;DHT22;69529;37.974;23.708;2023-05-07T15:21:22;23.80;37.80
80210;DHT22;69529;37.974;23.708;2023-05-07T15:23:49;23.80;38.10
80210;DHT22;69529;37.974;23.708;2023-05-07T15:26:16;23.80;37.80
80210;DHT22;69529;37.974;23.708;2023-05-07T15:28:43;23.80;37.80
80210;DHT22;69529;37.974;23.708;2023-05-07T15:31:11;23.90;37.90
80210;DHT22;69529;37.974;23.708;2023-05-07T15:33:38;23.90;37.80
80210;DHT22;69529;37.974;23.708;2023-05-07T15:36:06;23.80;37.90
80210;DHT22;69529;37.974;23.708;2023-05-07T15:38:33;23.90;37.80
80210;DHT22;69529;37.974;23.708;2023-05-07T15:41:00;23.80;37.90
80210;DHT22;69529;37.974;23.708;2023-05-07T15:43:27;23.80;37.80